Camminghaburen, Netherlands
Current Conditions -  °F | °C
As of 3:55 AM on Thursday 23 Oct 2014 (Local Time) from EHLW Reporting Station
Haze Haze  
Wind Chill: 50°   Ceiling: 400
Heat Index: 50°   Visibility: 1.9mi
Dew Point: 50°   Wind: 5mph
Humidity: 100%   Direction: 190°S
Pressure: 30.12"   Gusts: NA
Location:  53.21°N, 5.84°E
Report Text: EHLW 230155Z AUTO 19004KT 3100 R23/P3000 BR SCT003 BKN004 BKN021 10/10 Q1020 YLO
Loading
Personal Weather Stations






























Interactive Weather Map
Tropical Storm Tracking
New forecast layout! Learn more

10-Day Weather Forecast

Advertisements
Track Severe Weather on mobile